createdAt,value
2019-04-11T00:01:05.973Z,159.87
2019-04-11T00:03:33.520Z,159.05
2019-04-11T00:06:01.413Z,157.47
2019-04-11T00:08:28.773Z,157.22
2019-04-11T00:10:57.573Z,158.35
2019-04-11T00:13:28.324Z,156.47
2019-04-11T00:15:54.924Z,155.57
2019-04-11T00:18:22.871Z,156.52
2019-04-11T00:20:51.178Z,156.47
2019-04-11T00:23:18.504Z,157.70
2019-04-11T00:25:48.147Z,156.00
2019-04-11T00:28:15.417Z,156.90
2019-04-11T00:30:42.437Z,158.90
2019-04-11T00:33:09.887Z,156.18
2019-04-11T00:35:37.028Z,156.18
2019-04-11T00:38:04.193Z,158.32
2019-04-11T00:40:31.524Z,157.15
2019-04-11T00:42:58.981Z,157.10
2019-04-11T00:45:29.646Z,157.97
2019-04-11T00:47:57.954Z,157.20
2019-04-11T00:50:25.327Z,156.30
2019-04-11T00:52:52.429Z,156.43
2019-04-11T00:55:19.679Z,157.75
2019-04-11T00:57:47.376Z,158.37
2019-04-11T01:00:15.220Z,158.47
2019-04-11T01:02:43.339Z,157.97
2019-04-11T01:05:11.137Z,155.52
2019-04-11T01:07:38.728Z,157.85
2019-04-11T01:10:06.881Z,156.87
2019-04-11T01:12:34.429Z,155.35
2019-04-11T01:15:04.912Z,157.00
2019-04-11T01:17:32.246Z,154.75
2019-04-11T01:19:59.601Z,157.12
2019-04-11T01:22:26.629Z,156.43
2019-04-11T01:24:53.684Z,155.70
2019-04-11T01:27:21.615Z,156.02
2019-04-11T01:29:49.511Z,156.67
2019-04-11T01:32:17.988Z,158.15
2019-04-11T01:34:45.259Z,157.60
2019-04-11T01:37:16.299Z,156.87
2019-04-11T01:39:49.999Z,159.03
2019-04-11T01:42:17.697Z,156.32
2019-04-11T01:44:47.481Z,156.63
2019-04-11T01:47:20.913Z,157.50
2019-04-11T01:49:48.475Z,155.37
2019-04-11T01:52:15.476Z,156.10
2019-04-11T01:54:42.812Z,154.63
2019-04-11T01:57:11.765Z,156.78
2019-04-11T01:59:39.585Z,155.03
2019-04-11T02:02:26.441Z,156.22
2019-04-11T02:05:00.757Z,156.40
2019-04-11T02:07:28.894Z,156.20
2019-04-11T02:09:56.766Z,155.37
2019-04-11T02:12:23.854Z,155.57
2019-04-11T02:14:52.093Z,156.22
2019-04-11T02:17:19.355Z,154.78
2019-04-11T02:19:46.671Z,155.20
2019-04-11T02:22:35.763Z,156.02
2019-04-11T02:25:15.004Z,154.85
2019-04-11T02:27:42.372Z,155.50
2019-04-11T02:30:11.833Z,154.00
2019-04-11T02:32:40.462Z,155.85
2019-04-11T02:35:08.703Z,155.87
2019-04-11T02:37:38.009Z,155.05
2019-04-11T02:40:07.527Z,156.85
2019-04-11T02:42:35.753Z,157.18
2019-04-11T02:45:19.814Z,156.07
2019-04-11T02:47:35.661Z,154.72
2019-04-11T02:50:03.648Z,155.48
2019-04-11T02:52:31.315Z,156.18
2019-04-11T02:54:58.790Z,155.80
2019-04-11T02:57:26.551Z,154.47
2019-04-11T02:59:56.024Z,155.78
2019-04-11T03:02:23.848Z,155.65
2019-04-11T03:04:52.857Z,155.20
2019-04-11T03:07:20.583Z,156.60
2019-04-11T03:09:48.806Z,154.00
2019-04-11T03:12:19.087Z,155.30
2019-04-11T03:15:05.624Z,153.70
2019-04-11T03:17:23.030Z,153.85
2019-04-11T03:19:59.472Z,154.10
2019-04-11T03:22:16.180Z,154.30
2019-04-11T03:24:44.754Z,153.80
2019-04-11T03:27:12.137Z,152.72
2019-04-11T03:29:40.790Z,153.72
2019-04-11T03:32:51.306Z,154.30
2019-04-11T03:35:31.624Z,153.33
2019-04-11T03:37:40.023Z,154.23
2019-04-11T03:40:00.751Z,154.05
2019-04-11T03:42:25.027Z,153.70
2019-04-11T03:44:46.398Z,152.30
2019-04-11T03:47:25.065Z,154.83
2019-04-11T03:49:49.101Z,154.07
2019-04-11T03:52:12.231Z,154.43
2019-04-11T03:54:40.993Z,151.80
2019-04-11T03:57:09.872Z,154.97
2019-04-11T03:59:40.728Z,155.20
2019-04-11T04:02:16.438Z,152.27
2019-04-11T04:04:45.677Z,155.23
2019-04-11T04:07:14.896Z,155.00
2019-04-11T04:09:43.824Z,154.63
2019-04-11T04:12:13.405Z,152.35
2019-04-11T04:15:04.578Z,154.80
2019-04-11T04:18:05.695Z,157.25
2019-04-11T04:21:01.976Z,152.87
2019-04-11T04:23:35.779Z,153.00
2019-04-11T04:26:09.580Z,152.33
2019-04-11T04:28:35.766Z,151.68
2019-04-11T04:31:04.613Z,152.77
2019-04-11T04:33:35.071Z,152.70
2019-04-11T04:36:02.360Z,153.03
2019-04-11T04:38:31.608Z,154.83
2019-04-11T04:41:10.005Z,154.47
2019-04-11T04:43:29.392Z,152.53
2019-04-11T04:46:13.722Z,150.97
2019-04-11T04:48:27.147Z,152.43
2019-04-11T04:50:57.102Z,154.18
2019-04-11T04:53:26.672Z,152.93
2019-04-11T04:55:54.266Z,154.05
2019-04-11T04:58:24.855Z,155.00
2019-04-11T05:00:54.284Z,152.20
2019-04-11T05:03:26.825Z,153.10
2019-04-11T05:05:58.311Z,150.97
2019-04-11T05:08:30.617Z,150.42
2019-04-11T05:11:04.543Z,154.55
2019-04-11T05:13:34.437Z,152.97
2019-04-11T05:16:16.055Z,157.32
2019-04-11T05:18:37.366Z,153.32
2019-04-11T05:21:10.700Z,154.87
2019-04-11T05:23:42.850Z,155.23
2019-04-11T05:26:17.296Z,154.38
2019-04-11T05:28:47.290Z,152.55
2019-04-11T05:31:20.553Z,152.15
2019-04-11T05:33:47.863Z,153.15
2019-04-11T05:36:14.952Z,152.02
2019-04-11T05:38:42.327Z,152.40
2019-04-11T05:41:12.172Z,153.25
2019-04-11T05:43:40.113Z,151.65
2019-04-11T05:46:26.455Z,152.90
2019-04-11T05:48:58.946Z,152.97
2019-04-11T05:51:24.908Z,153.65
2019-04-11T05:53:54.506Z,152.25
2019-04-11T05:56:27.816Z,153.05
2019-04-11T05:58:59.859Z,156.35
2019-04-11T06:01:36.243Z,153.55
2019-04-11T06:04:13.132Z,151.80
2019-04-11T06:07:00.138Z,152.22
2019-04-11T06:09:33.746Z,150.00
2019-04-11T06:12:21.651Z,152.85
2019-04-11T06:14:58.422Z,151.85
2019-04-11T06:17:27.677Z,155.78
2019-04-11T06:20:29.789Z,159.95
2019-04-11T06:23:05.148Z,166.18
2019-04-11T06:25:43.617Z,168.52
2019-04-11T06:28:18.011Z,158.95
2019-04-11T06:31:10.723Z,156.15
2019-04-11T06:33:42.783Z,157.10
2019-04-11T06:36:35.557Z,154.15
2019-04-11T06:39:16.534Z,153.95
2019-04-11T06:42:07.495Z,153.87
2019-04-11T06:44:50.129Z,151.75
2019-04-11T06:47:47.398Z,152.07
2019-04-11T06:50:33.353Z,152.72
2019-04-11T06:53:00.727Z,154.60
2019-04-11T06:55:45.134Z,153.10
2019-04-11T06:58:16.355Z,152.45
2019-04-11T07:00:49.909Z,153.38
2019-04-11T07:03:25.513Z,152.75
2019-04-11T07:05:51.074Z,153.72
2019-04-11T07:08:20.237Z,152.72
2019-04-11T07:10:55.434Z,153.30
2019-04-11T07:13:46.250Z,157.05
2019-04-11T07:16:15.431Z,152.50
2019-04-11T07:19:17.728Z,154.70
2019-04-11T07:21:45.943Z,153.42
2019-04-11T07:24:32.429Z,152.22
2019-04-11T07:27:09.713Z,152.22
2019-04-11T07:30:05.481Z,151.47
2019-04-11T07:32:34.259Z,152.97
2019-04-11T07:35:19.707Z,153.00
2019-04-11T07:37:49.359Z,152.15
2019-04-11T07:40:36.678Z,151.90
2019-04-11T07:43:13.316Z,152.40
2019-04-11T07:46:09.033Z,151.32
2019-04-11T07:48:38.935Z,148.72
2019-04-11T07:51:17.482Z,151.55
2019-04-11T07:53:48.120Z,149.85
2019-04-11T07:56:39.917Z,152.22
2019-04-11T07:59:16.574Z,152.07
2019-04-11T08:02:10.288Z,154.57
2019-04-11T08:04:57.566Z,151.57
2019-04-11T08:07:44.812Z,150.50
2019-04-11T08:10:16.853Z,152.53
2019-04-11T08:12:43.878Z,152.82
2019-04-11T08:15:41.925Z,150.38
2019-04-11T08:18:32.728Z,151.02
2019-04-11T08:21:26.205Z,152.07
2019-04-11T08:23:56.269Z,150.03
2019-04-11T08:26:52.584Z,150.20
2019-04-11T08:29:24.343Z,151.70
2019-04-11T08:32:11.697Z,153.65
2019-04-11T08:34:46.479Z,152.43
2019-04-11T08:37:31.656Z,155.03
2019-04-11T08:39:59.683Z,155.52
2019-04-11T08:42:50.739Z,154.45
2019-04-11T08:45:19.556Z,154.95
2019-04-11T08:47:52.670Z,157.10
2019-04-11T08:50:21.332Z,154.90
2019-04-11T08:53:08.749Z,154.80
2019-04-11T08:55:55.298Z,154.07
2019-04-11T08:58:23.159Z,153.82
2019-04-11T09:00:56.169Z,152.12
2019-04-11T09:03:59.793Z,152.20
2019-04-11T09:06:24.889Z,152.15
2019-04-11T09:09:11.124Z,152.65
2019-04-11T09:11:58.330Z,151.50
2019-04-11T09:14:46.385Z,153.30
2019-04-11T09:17:34.724Z,152.25
2019-04-11T09:20:38.091Z,150.93
2019-04-11T09:23:11.430Z,151.78
2019-04-11T09:26:14.034Z,152.25
2019-04-11T09:28:46.436Z,151.87
2019-04-11T09:31:42.172Z,153.00
2019-04-11T09:34:28.555Z,152.90
2019-04-11T09:36:58.824Z,153.10
2019-04-11T09:39:47.571Z,153.65
2019-04-11T09:42:43.494Z,153.30
2019-04-11T09:45:45.788Z,152.25
2019-04-11T09:48:42.279Z,152.62
2019-04-11T09:51:33.870Z,154.32
2019-04-11T09:54:22.172Z,151.45
2019-04-11T09:57:18.539Z,151.22
2019-04-11T10:00:18.542Z,152.65
2019-04-11T10:02:53.007Z,154.50
2019-04-11T10:05:27.238Z,153.53
2019-04-11T10:08:10.690Z,152.47
2019-04-11T10:11:17.749Z,155.52
2019-04-11T10:14:17.509Z,154.18
2019-04-11T10:17:04.431Z,152.45
2019-04-11T10:19:54.337Z,155.03
2019-04-11T10:22:41.535Z,153.35
2019-04-11T10:25:32.801Z,158.20
2019-04-11T10:28:29.541Z,153.05
2019-04-11T10:31:04.242Z,153.32
2019-04-11T10:33:44.791Z,156.18
2019-04-11T10:36:34.977Z,153.70
2019-04-11T10:39:27.662Z,157.35
2019-04-11T10:42:02.220Z,157.10
2019-04-11T10:45:00.407Z,155.40
2019-04-11T10:47:29.184Z,157.70
2019-04-11T10:50:19.472Z,155.52
2019-04-11T10:52:58.503Z,154.80
2019-04-11T10:55:48.090Z,155.48
2019-04-11T10:58:19.074Z,154.25
2019-04-11T11:00:55.668Z,155.75
2019-04-11T11:03:30.727Z,155.07
2019-04-11T11:05:59.656Z,156.25
2019-04-11T11:09:12.225Z,153.12
2019-04-11T11:11:48.431Z,154.90
2019-04-11T11:14:55.907Z,153.62
2019-04-11T11:18:34.973Z,153.38
2019-04-11T11:21:01.709Z,153.95
2019-04-11T11:23:56.127Z,154.55
2019-04-11T11:26:43.366Z,154.70
2019-04-11T11:29:37.582Z,156.47
2019-04-11T11:32:16.757Z,155.03
2019-04-11T11:35:05.242Z,154.35
2019-04-11T11:37:49.183Z,155.12
2019-04-11T11:40:38.538Z,155.57
2019-04-11T11:43:30.925Z,157.25
2019-04-11T11:46:16.069Z,154.50
2019-04-11T11:48:59.195Z,155.15
2019-04-11T11:51:33.271Z,158.03
2019-04-11T11:54:19.907Z,156.15
2019-04-11T11:56:48.940Z,156.55
2019-04-11T11:59:23.038Z,157.52
2019-04-11T12:01:56.071Z,157.00
2019-04-11T12:04:48.761Z,156.15
2019-04-11T12:07:17.460Z,155.75
2019-04-11T12:10:02.981Z,157.25
2019-04-11T12:12:37.995Z,155.43
2019-04-11T12:15:31.325Z,154.42
2019-04-11T12:18:21.648Z,154.93
2019-04-11T12:21:01.251Z,154.18
2019-04-11T12:23:56.279Z,156.80
2019-04-11T12:26:16.798Z,157.07
2019-04-11T12:29:04.547Z,157.57
2019-04-11T12:31:34.988Z,157.15
2019-04-11T12:34:24.730Z,156.00
2019-04-11T12:36:53.323Z,157.95
2019-04-11T12:39:49.647Z,155.07
2019-04-11T12:42:19.501Z,157.45
2019-04-11T12:45:06.410Z,156.78
2019-04-11T12:47:38.502Z,157.30
2019-04-11T12:50:29.080Z,158.10
2019-04-11T12:53:03.401Z,158.15
2019-04-11T12:55:49.085Z,157.05
2019-04-11T12:58:41.799Z,158.20
2019-04-11T13:01:32.438Z,158.37
2019-04-11T13:04:30.944Z,159.20
2019-04-11T13:07:32.506Z,160.57
2019-04-11T13:10:11.852Z,158.05
2019-04-11T13:13:38.837Z,159.12
2019-04-11T13:16:12.896Z,156.67
2019-04-11T13:19:02.204Z,157.50
2019-04-11T13:21:46.213Z,157.55
2019-04-11T13:24:31.564Z,159.75
2019-04-11T13:27:36.339Z,158.03
2019-04-11T13:30:22.986Z,159.52
2019-04-11T13:33:05.503Z,162.55
2019-04-11T13:35:39.818Z,160.50
2019-04-11T13:38:17.317Z,161.12
2019-04-11T13:41:04.083Z,160.60
2019-04-11T13:43:57.210Z,158.42
2019-04-11T13:46:46.452Z,158.52
2019-04-11T13:49:36.338Z,160.50
2019-04-11T13:52:31.296Z,158.63
2019-04-11T13:55:01.953Z,159.87
2019-04-11T13:57:58.032Z,160.55
2019-04-11T14:00:45.503Z,159.55
2019-04-11T14:03:41.498Z,158.78
2019-04-11T14:06:15.414Z,158.50
2019-04-11T14:09:22.299Z,160.95
2019-04-11T14:11:51.362Z,159.48
2019-04-11T14:14:21.502Z,161.25
2019-04-11T14:16:58.425Z,160.15
2019-04-11T14:19:45.448Z,158.27
2019-04-11T14:22:13.760Z,159.75
2019-04-11T14:25:11.429Z,159.50
2019-04-11T14:27:36.816Z,159.78
2019-04-11T14:30:33.002Z,160.82
2019-04-11T14:33:01.046Z,159.57
2019-04-11T14:35:39.293Z,161.82
2019-04-11T14:38:16.448Z,158.57
2019-04-11T14:41:09.835Z,158.68
2019-04-11T14:43:43.809Z,158.70
2019-04-11T14:46:29.749Z,158.63
2019-04-11T14:49:05.679Z,158.97
2019-04-11T14:51:59.316Z,159.50
2019-04-11T14:54:33.212Z,158.60
2019-04-11T14:57:24.278Z,158.57
2019-04-11T14:59:59.034Z,160.15
2019-04-11T15:02:50.051Z,158.90
2019-04-11T15:05:39.852Z,158.72
2019-04-11T15:08:08.749Z,160.40
2019-04-11T15:11:09.694Z,158.97
2019-04-11T15:13:37.933Z,158.55
2019-04-11T15:16:30.810Z,161.20
2019-04-11T15:19:00.383Z,161.90
2019-04-11T15:21:45.988Z,158.12
2019-04-11T15:24:15.877Z,160.85
2019-04-11T15:27:01.387Z,162.07
2019-04-11T15:29:36.503Z,160.72
2019-04-11T15:32:22.294Z,159.22
2019-04-11T15:34:58.490Z,159.05
2019-04-11T15:37:51.219Z,158.30
2019-04-11T15:40:21.823Z,156.80
2019-04-11T15:43:14.288Z,160.67
2019-04-11T15:45:51.789Z,157.40
2019-04-11T15:48:36.809Z,161.40
2019-04-11T15:51:23.498Z,157.05
2019-04-11T15:54:15.989Z,158.10
2019-04-11T15:56:51.962Z,157.12
2019-04-11T15:59:38.909Z,157.37
2019-04-11T16:02:16.078Z,160.88
2019-04-11T16:05:07.949Z,159.48
2019-04-11T16:08:12.744Z,160.25
2019-04-11T16:10:48.111Z,157.85
2019-04-11T16:13:32.769Z,159.55
2019-04-11T16:16:06.805Z,160.37
2019-04-11T16:18:48.335Z,157.82
2019-04-11T16:21:23.936Z,156.90
2019-04-11T16:24:01.384Z,157.90
2019-04-11T16:26:40.757Z,158.57
2019-04-11T16:29:20.650Z,157.35
2019-04-11T16:31:47.771Z,157.70
2019-04-11T16:34:48.749Z,158.65
2019-04-11T16:37:17.581Z,158.18
2019-04-11T16:40:00.786Z,159.72
2019-04-11T16:42:42.639Z,158.50
2019-04-11T16:45:38.477Z,158.85
2019-04-11T16:48:06.062Z,156.30
2019-04-11T16:50:33.116Z,155.82
2019-04-11T16:53:00.396Z,158.90
2019-04-11T16:55:27.782Z,156.47
2019-04-11T16:57:55.243Z,156.60
2019-04-11T17:00:22.405Z,157.45
2019-04-11T17:02:49.721Z,157.60
2019-04-11T17:05:16.772Z,157.75
2019-04-11T17:07:56.746Z,160.55
2019-04-11T17:10:43.395Z,157.57
2019-04-11T17:13:13.110Z,155.55
2019-04-11T17:15:40.364Z,156.47
2019-04-11T17:18:07.523Z,155.15
2019-04-11T17:20:36.150Z,155.48
2019-04-11T17:23:07.476Z,157.80
2019-04-11T17:25:34.975Z,156.90
2019-04-11T17:28:02.259Z,155.32
2019-04-11T17:30:29.554Z,156.80
2019-04-11T17:32:57.962Z,157.00
2019-04-11T17:35:25.273Z,155.63
2019-04-11T17:37:52.775Z,156.87
2019-04-11T17:40:21.227Z,154.70
2019-04-11T17:42:48.399Z,155.78
2019-04-11T17:45:15.607Z,154.42
2019-04-11T17:47:44.927Z,156.00
2019-04-11T17:50:12.896Z,154.18
2019-04-11T17:52:43.001Z,154.42
2019-04-11T17:55:11.209Z,155.10
2019-04-11T17:57:40.865Z,154.45
2019-04-11T18:00:12.047Z,152.27
2019-04-11T18:02:41.495Z,154.57
2019-04-11T18:05:08.953Z,153.62
2019-04-11T18:07:38.317Z,156.37
2019-04-11T18:10:05.820Z,154.63
2019-04-11T18:12:34.413Z,156.15
2019-04-11T18:15:03.497Z,152.65
2019-04-11T18:17:32.721Z,156.65
2019-04-11T18:20:00.559Z,152.15
2019-04-11T18:22:29.547Z,154.10
2019-04-11T18:24:57.747Z,153.05
2019-04-11T18:27:24.902Z,154.25
2019-04-11T18:29:53.644Z,153.23
2019-04-11T18:32:22.645Z,152.10
2019-04-11T18:34:52.824Z,153.93
2019-04-11T18:37:19.955Z,151.60
2019-04-11T18:39:49.340Z,150.50
2019-04-11T18:42:16.529Z,148.85
2019-04-11T18:44:43.603Z,153.15
2019-04-11T18:47:10.724Z,154.68
2019-04-11T18:49:46.335Z,154.70
2019-04-11T18:52:19.975Z,152.68
2019-04-11T18:54:44.288Z,153.82
2019-04-11T18:57:13.289Z,155.45
2019-04-11T18:59:40.778Z,156.60
2019-04-11T19:02:09.950Z,153.47
2019-04-11T19:04:36.953Z,149.65
2019-04-11T19:07:05.126Z,151.37
2019-04-11T19:09:34.449Z,151.80
2019-04-11T19:12:04.921Z,151.68
2019-04-11T19:14:32.417Z,152.70
2019-04-11T19:17:01.659Z,151.00
2019-04-11T19:19:33.679Z,150.53
2019-04-11T19:22:00.837Z,149.32
2019-04-11T19:24:43.156Z,151.35
2019-04-11T19:27:14.055Z,148.57
2019-04-11T19:29:41.508Z,150.12
2019-04-11T19:32:08.626Z,150.78
2019-04-11T19:34:41.116Z,149.18
2019-04-11T19:37:11.797Z,149.00
2019-04-11T19:39:37.612Z,149.25
2019-04-11T19:42:08.872Z,148.20
2019-04-11T19:44:35.215Z,149.42
2019-04-11T19:47:02.567Z,149.45
2019-04-11T19:49:29.722Z,149.27
2019-04-11T19:51:58.665Z,148.22
2019-04-11T19:54:32.959Z,146.90
2019-04-11T19:57:04.949Z,145.65
2019-04-11T19:59:32.383Z,149.38
2019-04-11T20:02:00.227Z,148.43
2019-04-11T20:04:27.779Z,147.50
2019-04-11T20:06:55.423Z,148.02
2019-04-11T20:09:22.549Z,146.68
2019-04-11T20:11:49.767Z,148.32
2019-04-11T20:14:19.243Z,145.87
2019-04-11T20:16:48.908Z,148.00
2019-04-11T20:19:17.468Z,148.35
2019-04-11T20:21:44.935Z,146.70
2019-04-11T20:24:14.367Z,145.32
2019-04-11T20:26:41.130Z,146.75
2019-04-11T20:29:10.985Z,146.32
2019-04-11T20:31:38.278Z,145.53
2019-04-11T20:34:07.292Z,147.93
2019-04-11T20:36:40.782Z,144.55
2019-04-11T20:39:07.290Z,146.18
2019-04-11T20:41:34.711Z,145.77
2019-04-11T20:44:12.970Z,146.95
2019-04-11T20:46:40.269Z,147.05
2019-04-11T20:49:07.739Z,146.90
2019-04-11T20:51:35.069Z,145.60
2019-04-11T20:54:07.054Z,146.75
2019-04-11T20:56:34.623Z,146.65
2019-04-11T20:59:01.700Z,145.20
2019-04-11T21:01:28.790Z,146.37
2019-04-11T21:04:00.115Z,145.32
2019-04-11T21:06:26.116Z,147.45
2019-04-11T21:08:53.167Z,147.57
2019-04-11T21:11:20.338Z,146.87
2019-04-11T21:13:47.399Z,146.90
2019-04-11T21:16:14.449Z,146.60
2019-04-11T21:18:41.758Z,146.47
2019-04-11T21:21:08.820Z,144.30
2019-04-11T21:23:35.835Z,146.05
2019-04-11T21:26:03.327Z,145.62
2019-04-11T21:28:30.947Z,144.60
2019-04-11T21:31:00.090Z,144.80
2019-04-11T21:33:28.849Z,145.60
2019-04-11T21:36:01.422Z,145.90
2019-04-11T21:38:30.855Z,146.05
2019-04-11T21:40:59.495Z,145.00
2019-04-11T21:43:26.549Z,145.07
2019-04-11T21:45:55.430Z,148.07
2019-04-11T21:48:23.235Z,144.50
2019-04-11T21:50:50.573Z,146.13
2019-04-11T21:53:17.676Z,145.45
2019-04-11T21:55:47.315Z,146.05
2019-04-11T21:58:19.447Z,144.13
2019-04-11T22:00:51.786Z,147.95
2019-04-11T22:03:23.999Z,144.87
2019-04-11T22:05:49.142Z,146.05
2019-04-11T22:08:16.406Z,146.00
2019-04-11T22:10:43.442Z,146.53
2019-04-11T22:13:10.835Z,145.97
2019-04-11T22:15:42.045Z,145.12
2019-04-11T22:18:07.373Z,144.75
2019-04-11T22:20:34.525Z,145.38
2019-04-11T22:23:01.712Z,145.95
2019-04-11T22:25:28.751Z,143.43
2019-04-11T22:27:57.222Z,144.35
2019-04-11T22:30:25.404Z,144.25
2019-04-11T22:33:00.993Z,144.80
2019-04-11T22:35:29.110Z,144.95
2019-04-11T22:37:59.680Z,145.10
2019-04-11T22:40:25.994Z,145.65
2019-04-11T22:42:53.178Z,146.30
2019-04-11T22:45:20.201Z,146.13
2019-04-11T22:47:47.254Z,146.02
2019-04-11T22:50:14.294Z,144.82
2019-04-11T22:52:43.999Z,144.05
2019-04-11T22:55:11.856Z,144.68
2019-04-11T22:57:40.888Z,144.57
2019-04-11T23:00:09.624Z,143.52
2019-04-11T23:02:48.939Z,144.50
2019-04-11T23:05:17.427Z,143.85
2019-04-11T23:07:45.934Z,144.30
2019-04-11T23:10:17.117Z,142.75
2019-04-11T23:12:45.787Z,144.30
2019-04-11T23:15:15.195Z,143.13
2019-04-11T23:17:43.933Z,143.55
2019-04-11T23:20:11.922Z,143.47
2019-04-11T23:22:42.803Z,145.77
2019-04-11T23:25:09.456Z,144.10
2019-04-11T23:27:36.530Z,142.68
2019-04-11T23:30:04.588Z,143.50
2019-04-11T23:32:32.966Z,143.57
2019-04-11T23:35:00.029Z,143.35
2019-04-11T23:37:27.083Z,142.90
2019-04-11T23:39:54.142Z,144.68
2019-04-11T23:42:22.974Z,143.50
2019-04-11T23:44:50.476Z,143.77
2019-04-11T23:47:20.091Z,143.95
2019-04-11T23:49:49.626Z,142.82
2019-04-11T23:52:16.957Z,145.22
2019-04-11T23:54:44.042Z,143.57
2019-04-11T23:57:11.078Z,143.90
2019-04-11T23:59:40.029Z,146.18
